createdAt,value
2019-03-29T00:02:31.932Z,67.65
2019-03-29T00:07:39.736Z,67.58
2019-03-29T00:12:39.036Z,67.51
2019-03-29T00:17:41.768Z,67.49
2019-03-29T00:22:44.408Z,67.70
2019-03-29T00:27:46.998Z,67.70
2019-03-29T00:32:49.636Z,67.70
2019-03-29T00:37:53.864Z,67.73
2019-03-29T00:42:56.696Z,67.68
2019-03-29T00:47:59.282Z,67.56
2019-03-29T00:53:01.898Z,67.49
2019-03-29T00:58:04.607Z,67.43
2019-03-29T01:03:07.261Z,67.21
2019-03-29T01:08:10.793Z,67.21
2019-03-29T01:13:13.576Z,67.33
2019-03-29T01:18:16.173Z,67.25
2019-03-29T01:23:18.799Z,67.08
2019-03-29T01:28:21.702Z,67.04
2019-03-29T01:33:25.060Z,67.26
2019-03-29T01:38:28.176Z,67.13
2019-03-29T01:43:31.865Z,67.09
2019-03-29T01:48:34.548Z,66.98
2019-03-29T01:53:37.294Z,67.20
2019-03-29T01:58:40.721Z,67.17
2019-03-29T02:03:44.740Z,67.51
2019-03-29T02:08:47.300Z,67.48
2019-03-29T02:13:49.909Z,67.43
2019-03-29T02:18:52.535Z,67.39
2019-03-29T02:23:55.172Z,67.40
2019-03-29T02:28:57.716Z,67.37
2019-03-29T02:34:00.290Z,67.34
2019-03-29T02:39:03.974Z,67.40
2019-03-29T02:44:07.611Z,67.45
2019-03-29T02:49:12.630Z,67.41
2019-03-29T02:54:15.230Z,67.67
2019-03-29T02:59:17.774Z,67.80
2019-03-29T03:04:20.438Z,67.61
2019-03-29T03:09:23.095Z,67.56
2019-03-29T03:14:25.733Z,67.74
2019-03-29T03:19:28.329Z,67.73
2019-03-29T03:24:31.063Z,67.64
2019-03-29T03:29:33.658Z,67.52
2019-03-29T03:34:36.168Z,67.47
2019-03-29T03:39:38.842Z,67.53
2019-03-29T03:44:41.499Z,67.38
2019-03-29T03:49:44.136Z,67.52
2019-03-29T03:54:46.764Z,67.49
2019-03-29T03:59:53.420Z,67.76
2019-03-29T04:04:56.076Z,67.94
2019-03-29T04:10:01.116Z,67.85
2019-03-29T04:15:05.713Z,67.81
2019-03-29T04:20:10.595Z,67.61
2019-03-29T04:25:13.353Z,67.46
2019-03-29T04:30:16.053Z,67.43
2019-03-29T04:35:18.712Z,67.27
2019-03-29T04:40:21.373Z,67.18
2019-03-29T04:45:25.857Z,67.05
2019-03-29T04:50:29.739Z,66.94
2019-03-29T04:55:33.627Z,66.94
2019-03-29T05:00:36.273Z,67.05
2019-03-29T05:05:38.954Z,67.07
2019-03-29T05:10:41.635Z,67.22
2019-03-29T05:15:44.263Z,67.28
2019-03-29T05:20:46.889Z,67.04
2019-03-29T05:25:49.547Z,67.12
2019-03-29T05:30:52.068Z,67.13
2019-03-29T05:35:54.737Z,67.08
2019-03-29T05:40:57.415Z,67.11
2019-03-29T05:46:00.029Z,67.02
2019-03-29T05:51:03.889Z,66.99
2019-03-29T05:56:07.646Z,66.91
2019-03-29T06:01:10.321Z,67.08
2019-03-29T06:06:12.992Z,67.13
2019-03-29T06:11:15.589Z,67.00
2019-03-29T06:16:18.209Z,67.17
2019-03-29T06:21:20.988Z,67.04
2019-03-29T06:26:23.604Z,67.17
2019-03-29T06:31:26.191Z,67.18
2019-03-29T06:36:30.328Z,67.30
2019-03-29T06:41:32.977Z,67.13
2019-03-29T06:46:35.624Z,67.46
2019-03-29T06:51:38.308Z,67.87
2019-03-29T06:56:41.002Z,67.70
2019-03-29T07:01:46.301Z,67.32
2019-03-29T07:06:50.617Z,67.02
2019-03-29T07:11:53.270Z,66.83
2019-03-29T07:16:55.943Z,66.98
2019-03-29T07:21:58.671Z,67.07
2019-03-29T07:27:01.394Z,67.01
2019-03-29T07:32:04.105Z,66.99
2019-03-29T07:37:06.746Z,66.81
2019-03-29T07:42:09.396Z,66.72
2019-03-29T07:47:12.068Z,66.47
2019-03-29T07:52:14.741Z,66.33
2019-03-29T07:57:21.198Z,66.35
2019-03-29T08:02:23.882Z,66.17
2019-03-29T08:07:28.127Z,66.22
2019-03-29T08:12:31.256Z,65.95
2019-03-29T08:17:34.011Z,65.68
2019-03-29T08:22:37.788Z,65.08
2019-03-29T08:27:40.396Z,64.99
2019-03-29T08:32:43.003Z,64.56
2019-03-29T08:37:45.632Z,63.77
2019-03-29T08:42:48.238Z,63.28
2019-03-29T08:47:50.817Z,62.57
2019-03-29T08:52:57.003Z,62.51
2019-03-29T08:57:59.729Z,61.80
2019-03-29T09:03:02.444Z,61.52
2019-03-29T09:08:05.065Z,60.99
2019-03-29T09:13:07.764Z,60.71
2019-03-29T09:18:10.599Z,60.35
2019-03-29T09:23:13.214Z,60.21
2019-03-29T09:28:16.187Z,59.58
2019-03-29T09:33:20.984Z,58.35
2019-03-29T09:38:23.505Z,57.81
2019-03-29T09:43:26.779Z,57.29
2019-03-29T09:48:30.257Z,55.27
2019-03-29T09:53:32.945Z,55.21
2019-03-29T09:58:35.547Z,54.51
2019-03-29T10:03:38.240Z,55.19
2019-03-29T10:08:40.887Z,53.23
2019-03-29T10:13:43.491Z,52.29
2019-03-29T10:18:46.206Z,52.77
2019-03-29T10:23:48.789Z,53.49
2019-03-29T10:28:51.459Z,53.18
2019-03-29T10:33:54.119Z,52.46
2019-03-29T10:38:56.693Z,51.86
2019-03-29T10:43:59.687Z,51.94
2019-03-29T10:49:02.292Z,51.95
2019-03-29T10:54:04.908Z,50.64
2019-03-29T10:59:07.505Z,50.53
2019-03-29T11:04:10.415Z,50.07
2019-03-29T11:09:13.044Z,49.83
2019-03-29T11:14:15.720Z,49.70
2019-03-29T11:19:18.380Z,48.75
2019-03-29T11:24:21.021Z,48.82
2019-03-29T11:29:24.038Z,47.46
2019-03-29T11:34:26.656Z,47.18
2019-03-29T11:39:29.241Z,47.28
2019-03-29T11:44:31.858Z,45.70
2019-03-29T11:49:34.435Z,46.14
2019-03-29T11:54:36.981Z,46.11
2019-03-29T11:59:40.290Z,46.56
2019-03-29T12:04:43.139Z,46.04
2019-03-29T12:09:45.783Z,46.01
2019-03-29T12:14:48.454Z,45.47
2019-03-29T12:19:51.100Z,45.73
2019-03-29T12:24:53.702Z,45.63
2019-03-29T12:29:56.307Z,45.85
2019-03-29T12:34:58.791Z,46.54
2019-03-29T12:40:01.470Z,45.41
2019-03-29T12:45:04.930Z,44.85
2019-03-29T12:50:08.523Z,44.92
2019-03-29T12:55:11.211Z,44.42
2019-03-29T13:00:14.460Z,44.23
2019-03-29T13:05:17.152Z,44.13
2019-03-29T13:10:19.797Z,44.31
2019-03-29T13:15:23.639Z,44.34
2019-03-29T13:20:26.451Z,44.22
2019-03-29T13:25:29.054Z,44.49
2019-03-29T13:30:31.970Z,44.68
2019-03-29T13:35:35.078Z,44.82
2019-03-29T13:40:37.732Z,44.42
2019-03-29T13:45:40.377Z,43.89
2019-03-29T13:50:42.941Z,44.44
2019-03-29T13:55:45.550Z,44.40
2019-03-29T14:00:48.224Z,44.40
2019-03-29T14:05:50.853Z,43.84
2019-03-29T14:10:53.567Z,43.81
2019-03-29T14:15:56.205Z,44.21
2019-03-29T14:21:00.055Z,44.51
2019-03-29T14:26:04.594Z,44.45
2019-03-29T14:31:07.172Z,44.53
2019-03-29T14:36:09.774Z,44.78
2019-03-29T14:41:12.386Z,44.78
2019-03-29T14:46:14.976Z,44.63
2019-03-29T14:51:17.605Z,44.75
2019-03-29T14:56:20.273Z,45.14
2019-03-29T15:01:22.799Z,46.16
2019-03-29T15:06:25.497Z,45.71
2019-03-29T15:11:28.111Z,45.46
2019-03-29T15:16:30.747Z,45.46
2019-03-29T15:21:33.363Z,46.01
2019-03-29T15:26:35.995Z,45.74
2019-03-29T15:31:38.663Z,46.31
2019-03-29T15:36:41.291Z,46.43
2019-03-29T15:41:43.925Z,46.27
2019-03-29T15:46:46.509Z,46.07
2019-03-29T15:51:49.116Z,46.34
2019-03-29T15:56:51.815Z,46.39
2019-03-29T16:01:54.524Z,46.50
2019-03-29T16:06:57.108Z,46.18
2019-03-29T16:12:01.073Z,46.27
2019-03-29T16:17:03.710Z,46.34
2019-03-29T16:22:06.374Z,46.09
2019-03-29T16:27:09.135Z,46.30
2019-03-29T16:32:11.782Z,46.59
2019-03-29T16:37:16.272Z,46.69
2019-03-29T16:42:18.909Z,46.83
2019-03-29T16:47:21.532Z,46.91
2019-03-29T16:52:24.181Z,46.96
2019-03-29T16:57:26.878Z,47.22
2019-03-29T17:02:29.556Z,47.44
2019-03-29T17:07:32.337Z,47.70
2019-03-29T17:12:35.240Z,47.53
2019-03-29T17:17:37.900Z,47.53
2019-03-29T17:22:43.279Z,47.63
2019-03-29T17:27:51.996Z,47.92
2019-03-29T17:32:57.808Z,48.04
2019-03-29T17:38:00.464Z,48.27
2019-03-29T17:43:03.089Z,48.50
2019-03-29T17:48:05.804Z,48.87
2019-03-29T17:53:08.375Z,49.13
2019-03-29T17:58:11.082Z,49.21
2019-03-29T18:03:13.753Z,49.53
2019-03-29T18:08:16.368Z,49.69
2019-03-29T18:13:19.055Z,49.97
2019-03-29T18:18:29.554Z,50.32
2019-03-29T18:23:32.147Z,50.48
2019-03-29T18:28:38.120Z,50.68
2019-03-29T18:33:43.213Z,50.89
2019-03-29T18:38:46.688Z,51.17
2019-03-29T18:43:49.455Z,51.62
2019-03-29T18:48:52.086Z,51.82
2019-03-29T18:53:54.797Z,51.84
2019-03-29T18:58:57.296Z,52.04
2019-03-29T19:04:00.014Z,52.45
2019-03-29T19:09:03.980Z,52.67
2019-03-29T19:14:06.700Z,52.83
2019-03-29T19:19:10.474Z,52.92
2019-03-29T19:24:13.524Z,53.16
2019-03-29T19:29:16.153Z,53.32
2019-03-29T19:34:18.851Z,53.62
2019-03-29T19:39:21.527Z,53.71
2019-03-29T19:44:24.143Z,53.79
2019-03-29T19:49:26.791Z,54.20
2019-03-29T19:54:29.331Z,54.50
2019-03-29T19:59:32.014Z,54.58
2019-03-29T20:04:34.671Z,54.75
2019-03-29T20:09:37.363Z,54.90
2019-03-29T20:14:42.115Z,55.20
2019-03-29T20:19:44.756Z,55.21
2019-03-29T20:24:47.414Z,55.65
2019-03-29T20:29:52.187Z,55.66
2019-03-29T20:34:54.777Z,55.69
2019-03-29T20:39:57.378Z,56.10
2019-03-29T20:44:59.874Z,56.11
2019-03-29T20:50:02.862Z,56.38
2019-03-29T20:55:05.738Z,56.48
2019-03-29T21:00:10.122Z,56.59
2019-03-29T21:05:12.702Z,56.65
2019-03-29T21:10:15.721Z,56.68
2019-03-29T21:15:18.445Z,56.77
2019-03-29T21:20:21.113Z,56.85
2019-03-29T21:25:24.086Z,56.87
2019-03-29T21:30:26.666Z,57.05
2019-03-29T21:35:29.380Z,57.15
2019-03-29T21:40:31.966Z,57.06
2019-03-29T21:45:34.596Z,56.99
2019-03-29T21:50:37.202Z,57.02
2019-03-29T21:55:39.807Z,57.22
2019-03-29T22:00:44.220Z,57.28
2019-03-29T22:05:46.903Z,57.40
2019-03-29T22:10:49.696Z,57.45
2019-03-29T22:15:52.310Z,57.71
2019-03-29T22:20:56.165Z,57.88
2019-03-29T22:25:58.866Z,57.90
2019-03-29T22:31:01.496Z,58.06
2019-03-29T22:36:04.139Z,58.19
2019-03-29T22:41:06.721Z,58.38
2019-03-29T22:46:09.320Z,58.32
2019-03-29T22:51:11.975Z,58.50
2019-03-29T22:56:14.570Z,58.59
2019-03-29T23:01:17.749Z,58.82
2019-03-29T23:06:20.361Z,58.98
2019-03-29T23:11:22.999Z,59.04
2019-03-29T23:16:25.619Z,59.03
2019-03-29T23:21:28.274Z,59.18
2019-03-29T23:26:32.146Z,59.46
2019-03-29T23:31:34.768Z,59.52
2019-03-29T23:36:37.411Z,59.68
2019-03-29T23:41:40.039Z,59.97
2019-03-29T23:46:42.726Z,59.82
2019-03-29T23:51:45.333Z,59.82
2019-03-29T23:56:47.980Z,59.75
